Station: Thredbo Top Station  

  Atmospheric Gas Attenuation - ITU Rec 676-11   ----------------- dB/100km -----------------
Date Time Temp RH % AH g/m3 Dew Point Wind Direction Speed kph Gust kph Barometer mB Rainfall Since 9am 24GHz 47GHz 76GHz 122GHz 134GHz 241GHz
02/09 19:30 4.2 93 6 3.2 61 85 1013.1 0 14.4 24.3 33.7 88.0 74.2 252.6
02/09 19:20 3.8 94 5.9 2.9 59 89 1013.1 0 14.2 24.3 33.4 87.3 73.3 249.1
02/09 19:10 3.9 86 5.44 1.8 63 87 1013.1 0 13.2 23.5 31.5 82.2 67.0 227.0
02/09 19:00 4.1 89 5.7 2.5 63 93 1013.1 0 13.8 23.9 32.5 84.8 70.3 238.6
02/09 18:50 4.3 89 5.78 2.7 63 93 1013.1 0 13.9 23.9 32.7 85.4 71.2 241.8
02/09 18:40 3.8 96 6.03 3.2 61 85 1013.1 0 14.5 24.5 33.9 88.7 75.0 255.3
02/09 18:30 4.3 92 5.97 3.1 65 91 1013.1 0 14.3 24.3 33.5 87.5 73.7 250.8
02/09 18:20 3.9 96 6.07 3.3 61 89 1013.1 0 14.6 24.5 34.1 89.1 75.5 256.9
02/09 18:10 3.9 94 5.94 3 63 82 1013.1 0 14.3 24.3 33.5 87.6 73.7 250.7
02/09 18:00 3.9 97 6.13 3.5 56 82 1013.1 0 14.7 24.6 34.3 89.7 76.3 259.8
02/09 17:50 4 94 5.98 3.1 65 89 1013.1 0 14.4 24.4 33.7 88.0 74.2 252.2
02/09 17:40 4 96 6.11 3.4 63 89 1013.1 0 14.7 24.6 34.2 89.4 75.9 258.5
02/09 17:30 4.1 94 6.02 3.2 63 87 1013.1 0 14.5 24.4 33.8 88.3 74.6 253.8
02/09 17:20 4.1 96 6.15 3.5 54 83 1013.1 0 14.7 24.6 34.3 89.7 76.4 260.1
02/09 17:10 4.3 95 6.17 3.6 63 89 1013.1 0 14.8 24.6 34.3 89.7 76.5 260.4
02/09 17:00 4.3 90 5.84 2.8 72 91 1013.1 0 14.1 24.0 33.0 86.1 72.0 244.6
02/09 16:50 4.4 90 5.88 2.9 72 93 1013.1 0 14.1 24.1 33.1 86.4 72.4 246.2
02/09 16:40 4 97 6.17 3.6 63 89 1013.1 0 14.8 24.7 34.4 90.1 76.8 261.4
02/09 16:30 4.1 95 6.09 3.4 56 74 1013.1 0 14.6 24.5 34.1 89.1 75.6 257.2
02/09 16:20 4.1 93 5.96 3.1 54 74 1013.1 0 14.3 24.3 33.5 87.6 73.8 251.0
02/09 16:10 4 97 6.17 3.6 57 69 1013.1 0 14.8 24.7 34.4 90.1 76.8 261.4
02/09 16:00 4.1 98 6.28 3.8 56 78 1015 0 15.0 24.9 34.9 91.4 78.3 266.8
02/09 15:50 4.2 97 6.26 3.8 57 83 1015.3 0 15.0 24.9 34.8 91.1 78.0 265.5
02/09 15:40 4.4 90 5.88 2.9 65 85 1015.5 0 14.1 24.2 33.2 86.6 72.6 246.7
02/09 15:30 4.3 92 5.97 3.1 57 80 1015.3 0 14.3 24.3 33.6 87.7 73.9 251.3
02/09 15:20 4.3 91 5.91 3 67 89 1015.2 0 14.2 24.2 33.3 87.1 73.1 248.4
02/09 15:10 4.3 92 5.97 3.1 65 89 1015.5 0 14.3 24.3 33.6 87.7 73.9 251.3
02/09 15:00 4.2 94 6.06 3.3 61 85 1015.2 0 14.5 24.5 34.0 88.8 75.2 255.9
02/09 14:50 4.1 96 6.15 3.5 59 83 1015.7 0 14.7 24.7 34.4 90.0 76.6 260.6
02/09 14:40 4 96 6.11 3.4 59 78 1015.6 0 14.7 24.7 34.3 89.6 76.1 259.0
02/09 14:30 4.3 93 6.04 3.3 65 85 1015.6 0 14.5 24.5 33.9 88.5 74.9 254.7
02/09 14:20 4.5 90 5.92 3 65 87 1015.6 0 14.2 24.2 33.3 87.0 73.0 248.3
02/09 14:10 4.5 88 5.79 2.7 74 95 1015.7 0 13.9 24.0 32.8 85.6 71.3 242.2
02/09 14:00 4.3 90 5.84 2.8 67 91 1015.4 0 14.1 24.1 33.1 86.3 72.1 245.1
02/09 13:50 4.2 90 5.8 2.7 63 76 1016.1 0 14.0 24.1 33.0 86.1 71.7 243.7
02/09 13:40 4.2 93 6 3.2 63 82 1016.1 0 14.4 24.4 33.8 88.2 74.4 253.2
02/09 13:30 4.4 87 5.69 2.4 57 80 1015.9 0 13.7 23.9 32.4 84.6 70.1 237.8
02/09 13:20 4.1 92 5.89 2.9 57 80 1016.1 0 14.2 24.3 33.4 87.1 73.0 248.3
02/09 13:10 4.3 90 5.84 2.8 63 78 1016.5 0 14.1 24.2 33.1 86.4 72.2 245.3
02/09 13:00 5 88 5.98 3.2 59 78 1016.2 0 14.3 24.2 33.4 87.1 73.4 249.7
02/09 12:50 4.3 88 5.71 2.5 54 74 1016.5 0 13.8 24.0 32.6 85.0 70.4 239.2
02/09 12:40 4 91 5.79 2.7 56 76 1016.8 0 14.0 24.2 33.0 86.2 71.8 244.0
02/09 12:30 4.1 90 5.77 2.6 61 85 1016.7 0 13.9 24.1 32.9 85.9 71.5 242.7
02/09 12:20 4 91 5.79 2.7 57 78 1016.3 0 14.0 24.2 33.0 86.2 71.8 243.9
02/09 12:10 3.8 91 5.71 2.5 67 87 1016.6 0 13.8 24.1 32.8 85.6 70.9 240.8
02/09 12:00 3.9 89 5.63 2.3 65 93 1016.4 0 13.6 23.9 32.4 84.5 69.7 236.6
02/09 11:50 3.9 92 5.82 2.7 67 85 1016.7 0 14.0 24.3 33.2 86.7 72.3 245.7
02/09 11:40 4.2 89 5.74 2.6 59 83 1017 0 13.9 24.1 32.8 85.5 71.0 241.0
02/09 11:30 3.8 91 5.71 2.5 56 80 1017.6 0 13.8 24.1 32.8 85.6 71.0 241.0
02/09 11:20 3.7 93 5.8 2.7 54 80 1018.1 0 14.0 24.3 33.3 86.8 72.3 245.7
02/09 11:10 3.7 90 5.61 2.2 54 80 1018.4 0 13.6 24.0 32.5 84.7 69.8 236.7
02/09 11:00 3.7 93 5.8 2.7 48 70 1018.2 0 14.0 24.3 33.3 86.8 72.3 245.7
02/09 10:50 3.6 94 5.82 2.7 50 69 1018.9 0 14.0 24.4 33.4 87.2 72.7 247.1
02/09 10:40 3.6 94 5.82 2.7 57 76 1018.2 0 14.0 24.4 33.4 87.1 72.7 247.0
02/09 10:30 3.8 95 5.96 3.1 57 78 1018 0 14.3 24.6 33.9 88.4 74.4 253.0
02/09 10:20 3.3 96 5.83 2.7 65 87 1018 0 14.1 24.5 33.5 87.6 73.1 248.3
02/09 10:10 3.4 94 5.75 2.5 67 80 1017.6 0 13.9 24.3 33.1 86.5 71.9 244.1
02/09 10:00 3.2 98 5.91 2.9 61 72 1017.5 0 14.3 24.6 33.9 88.5 74.3 252.4
02/09 09:50 3.6 97 6.01 3.2 67 87 1017.1 0 14.5 24.7 34.1 89.1 75.2 255.9
02/09 09:40 3.3 100 6.07 3.3 69 93 1017.2 0 14.6 24.9 34.5 90.2 76.4 259.8
02/09 09:30 3.3 100 6.07 3.3 67 91 1017.1 0 14.6 24.9 34.5 90.2 76.4 259.7
02/09 09:20 3.5 100 6.15 3.5 61 89 1017 0 14.8 24.9 34.7 90.8 77.3 262.9
02/09 09:10 3.2 100 6.03 3.2 57 83 1017.2 0 14.5 24.8 34.4 89.8 75.9 258.2
02/09 09:00 3.4 100 6.11 3.4 56 85 1016.8 0 14.7 24.9 34.6 90.5 76.8 261.3
02/09 08:50 3.6 100 6.2 3.6 56 80 1017.4 0.8 14.9 25.0 34.9 91.3 77.9 265.1
02/09 08:40 3.4 100 6.11 3.4 56 76 1017.5 0.8 14.7 24.9 34.6 90.5 76.8 261.4
02/09 08:30 3.4 100 6.11 3.4 57 82 1017.3 0.8 14.7 24.9 34.6 90.5 76.8 261.4
02/09 08:20 3.4 100 6.11 3.4 57 85 1017.4 0.8 14.7 24.9 34.6 90.5 76.8 261.4
02/09 08:10 3.3 100 6.07 3.3 52 70 1017.2 0.8 14.6 24.9 34.5 90.2 76.4 259.8
02/09 08:00 2.9 100 5.91 2.9 56 76 1016.3 0.8 14.3 24.7 34.0 88.7 74.5 253.1
02/09 07:50 2.8 100 5.87 2.8 57 72 1016.2 0.8 14.2 24.6 33.8 88.4 74.0 251.5
02/09 07:40 2.9 100 5.91 2.9 63 87 1016.7 0.8 14.3 24.7 34.0 88.8 74.5 253.2
02/09 07:30 2.9 99 5.85 2.8 67 85 1015.8 0.8 14.1 24.5 33.7 88.0 73.6 250.1
02/09 07:20 2.9 99 5.85 2.8 69 85 1015.5 0.8 14.1 24.5 33.7 88.0 73.6 250.1
02/09 07:10 2.8 98 5.75 2.5 72 93 1015.3 0.8 13.9 24.4 33.3 87.0 72.3 245.5
02/09 07:00 2.9 98 5.79 2.6 76 98 1013.1 0.8 14.0 24.3 33.3 87.1 72.6 246.6
02/09 06:50 3 98 5.83 2.7 67 85 1013.1 0.8 14.1 24.4 33.5 87.4 73.1 248.3
02/09 06:40 2.8 99 5.81 2.7 65 89 1013.1 0.8 14.1 24.4 33.5 87.4 73.0 247.9
02/09 06:30 2.6 99 5.74 2.5 56 78 1015 0.8 13.9 24.4 33.3 87.1 72.3 245.6
02/09 06:20 2.7 99 5.77 2.6 54 74 1015.8 0.8 14.0 24.5 33.5 87.4 72.7 246.9
02/09 06:10 2.7 98 5.72 2.4 56 78 1015.8 0.8 13.9 24.4 33.2 86.8 72.0 244.5
02/09 06:00 2.7 98 5.72 2.4 54 76 1015.7 0.8 13.9 24.4 33.2 86.8 72.0 244.5
02/09 05:50 2.8 97 5.7 2.4 57 78 1016.1 0.8 13.8 24.3 33.1 86.5 71.7 243.3
02/09 05:40 2.9 94 5.56 2 63 83 1016.1 0.8 13.5 24.1 32.5 84.8 69.7 236.2
02/09 05:30 3 95 5.65 2.3 63 83 1015.8 0.8 13.7 24.2 32.8 85.7 70.8 240.2
02/09 05:20 3 94 5.59 2.1 65 87 1015.7 0.8 13.6 24.1 32.6 85.0 70.0 237.3
02/09 05:10 2.8 96 5.64 2.2 65 87 1015.6 0.6 13.7 24.2 32.9 85.8 70.8 240.3
02/09 05:00 3 94 5.59 2.1 69 87 1015.3 0.6 13.6 24.1 32.6 85.0 69.9 237.2
02/09 04:50 3.1 95 5.69 2.4 69 89 1015.2 0.6 13.8 24.2 32.9 86.0 71.2 241.7
02/09 04:40 2.8 97 5.7 2.4 65 91 1015.3 0.6 13.8 24.3 33.1 86.4 71.6 243.1
02/09 04:30 2.7 98 5.72 2.4 59 80 1015.3 0.6 13.9 24.4 33.2 86.8 72.0 244.4
02/09 04:20 2.7 99 5.77 2.6 61 85 1015.5 0.6 14.0 24.5 33.4 87.3 72.7 246.8
02/09 04:10 2.6 100 5.79 2.6 63 89 1015.5 0.6 14.0 24.5 33.6 87.7 73.1 248.1
02/09 04:00 2.6 100 5.79 2.6 61 87 1015 0.6 14.0 24.5 33.5 87.6 73.0 248.0
02/09 03:50 2.7 100 5.83 2.7 65 89 1013.1 0.6 14.1 24.5 33.6 87.8 73.4 249.2
02/09 03:40 2.8 100 5.87 2.8 65 85 1015.2 0.6 14.2 24.6 33.8 88.3 73.9 251.3
02/09 03:30 2.8 100 5.87 2.8 70 96 1013.1 0.6 14.2 24.5 33.7 88.1 73.8 250.8
02/09 03:20 2.8 100 5.87 2.8 70 95 1013.1 0.6 14.2 24.5 33.7 88.1 73.8 250.8
02/09 03:10 2.9 100 5.91 2.9 63 89 1013.1 0.6 14.3 24.5 33.8 88.4 74.3 252.4
02/09 03:00 2.9 100 5.91 2.9 65 83 1013.1 0.6 14.3 24.5 33.8 88.4 74.3 252.4

Last Refresh: 02-Sep-2026 19:13:22

Bureau of Meteorology